Time;durP1;ratioP1;P1;durP2;ratioP2;P2;SDS_P1;SDS_P2;PMS_P1;PMS_P2;Temp;Humidity;BMP_temperature;BMP_pressure;BME280_temperature;BME280_humidity;BME280_pressure;Samples;Min_cycle;Max_cycle;Signal;HPM_P1;HPM_P2
2022/01/10 00:00:37;;;;;;;25.30;11.93;;;;;;;3.94;92.15;97495.53;4852129;29;20657;-84
2022/01/10 00:03:05;;;;;;;23.27;13.07;;;;;;;3.94;93.61;97495.53;4850131;29;20662;-84
2022/01/10 00:05:34;;;;;;;16.70;11.00;;;;;;;3.97;92.88;97498.81;4828277;29;21225;-85
2022/01/10 00:08:04;;;;;;;32.83;12.27;;;;;;;4.01;92.94;97502.03;4850557;29;20665;-84
2022/01/10 00:10:33;;;;;;;24.77;12.50;;;;;;;4.00;92.36;97510.69;4845866;29;20640;-85
2022/01/10 00:13:03;;;;;;;83.93;14.80;;;;;;;4.00;92.92;97510.69;4845310;29;20657;-84
2022/01/10 00:15:31;;;;;;;23.30;12.10;;;;;;;3.98;92.96;97517.69;4845906;29;20738;-84
2022/01/10 00:17:59;;;;;;;21.70;11.07;;;;;;;3.96;93.08;97524.66;4830801;29;20649;-84
2022/01/10 00:20:27;;;;;;;19.13;11.37;;;;;;;3.97;92.28;97523.72;4848825;29;20728;-84
2022/01/10 00:22:56;;;;;;;26.93;11.53;;;;;;;3.96;93.24;97522.09;4848401;29;20717;-84
2022/01/10 00:25:24;;;;;;;21.80;11.10;;;;;;;3.98;92.59;97526.22;4850718;29;20645;-85
2022/01/10 00:27:53;;;;;;;21.03;11.43;;;;;;;3.98;93.40;97528.81;4844061;29;20661;-84
2022/01/10 00:30:24;;;;;;;19.83;12.03;;;;;;;3.98;93.18;97531.38;4848562;29;21115;-85
2022/01/10 00:32:53;;;;;;;18.00;10.03;;;;;;;3.99;92.95;97533.06;4849593;29;20644;-84
2022/01/10 00:35:21;;;;;;;24.13;11.37;;;;;;;3.98;93.09;97533.16;4850628;29;21228;-84
2022/01/10 00:37:51;;;;;;;20.53;11.63;;;;;;;3.99;93.40;97529.66;4851673;29;20627;-84
2022/01/10 00:40:19;;;;;;;24.20;12.00;;;;;;;3.99;92.28;97540.81;4862918;29;20640;-84
2022/01/10 00:42:54;;;;;;;21.87;12.50;;;;;;;3.99;94.13;97542.56;4844508;29;20657;-84
2022/01/10 00:45:26;;;;;;;18.13;10.37;;;;;;;4.00;93.68;97546.78;4852173;29;21221;-84
2022/01/10 00:47:55;;;;;;;22.83;11.67;;;;;;;4.01;93.47;97541.56;4846536;29;20669;-84
2022/01/10 00:50:25;;;;;;;26.70;12.77;;;;;;;4.01;94.17;97548.47;4828690;29;21304;-84
2022/01/10 00:52:54;;;;;;;24.17;11.70;;;;;;;4.01;93.00;97551.03;4849912;29;20649;-84
2022/01/10 00:55:22;;;;;;;35.93;12.07;;;;;;;3.98;93.47;97544.28;4849218;29;20752;-84
2022/01/10 00:57:50;;;;;;;29.33;12.50;;;;;;;3.96;93.53;97550.47;4832939;29;21239;-84
2022/01/10 01:00:19;;;;;;;27.83;11.40;;;;;;;3.96;93.04;97555.63;4860750;29;20647;-84
2022/01/10 01:02:49;;;;;;;21.47;11.97;;;;;;;3.97;93.14;97557.25;4845561;29;20636;-85
2022/01/10 01:05:20;;;;;;;20.07;11.77;;;;;;;3.98;93.79;97561.53;4828553;29;20653;-84
2022/01/10 01:07:48;;;;;;;25.07;12.07;;;;;;;3.97;93.11;97568.44;4846724;29;20667;-84
2022/01/10 01:13:20;;;;;;;20.07;11.10;;;;;;;3.93;93.11;97572.06;4849280;29;20734;-84
2022/01/10 01:16:07;;;;;;;21.13;11.73;;;;;;;3.95;93.54;97577.16;4846406;29;21301;-84
2022/01/10 01:24:39;;;;;;;16.87;10.13;;;;;;;4.02;93.00;97581.09;4758705;30;20636;-84
2022/01/10 01:27:08;;;;;;;17.90;10.80;;;;;;;4.03;92.76;97598.22;4769262;29;20661;-84
2022/01/10 01:29:36;;;;;;;19.90;11.60;;;;;;;4.02;93.71;97599.16;4792851;29;21038;-84
2022/01/10 01:32:05;;;;;;;15.97;10.80;;;;;;;4.00;92.84;97595.78;4851469;29;20641;-84
2022/01/10 01:34:35;;;;;;;17.23;10.80;;;;;;;4.00;92.26;97598.38;4831640;29;20649;-85
2022/01/10 01:37:04;;;;;;;19.50;11.63;;;;;;;3.99;92.77;97614.78;4855524;29;20742;-84
2022/01/10 01:39:32;;;;;;;19.43;11.00;;;;;;;4.01;93.42;97608.59;4838336;29;20638;-84
2022/01/10 01:42:06;;;;;;;19.63;10.80;;;;;;;4.02;93.94;97620.59;4838274;29;20642;-85
2022/01/10 01:44:35;;;;;;;15.83;10.27;;;;;;;4.02;92.38;97623.19;4850224;29;20750;-85
2022/01/10 01:47:05;;;;;;;15.93;10.63;;;;;;;4.00;92.97;97626.75;4836211;29;20751;-84
2022/01/10 01:49:34;;;;;;;14.23;9.37;;;;;;;4.03;93.03;97613.69;4866816;29;20697;-84
2022/01/10 01:52:03;;;;;;;16.70;10.20;;;;;;;4.04;92.08;97631.66;4844778;29;20636;-84
2022/01/10 01:54:31;;;;;;;15.80;9.90;;;;;;;4.05;93.47;97633.34;4853724;29;21216;-84
2022/01/10 01:56:59;;;;;;;20.23;11.00;;;;;;;4.03;93.09;97629.16;4850688;29;20745;-84
2022/01/10 01:59:28;;;;;;;13.30;9.50;;;;;;;4.04;93.72;97636.00;4865004;29;20627;-84
2022/01/10 02:01:57;;;;;;;16.60;10.07;;;;;;;4.05;93.35;97633.34;4866372;29;20677;-84
2022/01/10 02:04:25;;;;;;;17.10;9.80;;;;;;;4.06;92.90;97634.16;4851157;29;21206;-84
2022/01/10 02:06:58;;;;;;;15.20;9.40;;;;;;;4.00;92.75;97635.34;4829777;29;20693;-84
2022/01/10 02:09:27;;;;;;;16.53;9.27;;;;;;;3.97;92.44;97645.81;4867107;29;20661;-84
2022/01/10 02:11:57;;;;;;;17.80;11.50;;;;;;;3.97;92.45;97650.09;4853259;29;21026;-84
2022/01/10 02:14:25;;;;;;;15.93;10.17;;;;;;;3.97;92.70;97652.69;4849026;29;20728;-84
2022/01/10 02:16:55;;;;;;;17.80;10.27;;;;;;;4.00;92.69;97649.94;4847072;29;20657;-84
2022/01/10 02:19:55;;;;;;;18.20;11.53;;;;;;;4.01;93.23;97656.78;4851943;29;20633;-84
2022/01/10 02:22:25;;;;;;;14.07;9.93;;;;;;;4.02;92.66;97656.72;4847241;29;20712;-84
2022/01/10 02:25:09;;;;;;;15.83;11.43;;;;;;;4.03;93.32;97660.13;4867335;29;22567;-84
2022/01/10 02:27:37;;;;;;;14.97;10.50;;;;;;;4.06;93.67;97670.28;4832567;29;20675;-84
2022/01/10 02:30:06;;;;;;;14.00;9.80;;;;;;;4.07;94.28;97666.81;4833657;29;20670;-84
2022/01/10 02:32:35;;;;;;;13.80;9.47;;;;;;;4.08;93.40;97665.91;4865115;29;20650;-84
2022/01/10 02:35:05;;;;;;;15.20;10.00;;;;;;;4.10;94.23;97664.91;4835645;29;21044;-84
2022/01/10 02:37:35;;;;;;;14.47;9.27;;;;;;;4.09;93.12;97664.97;4853698;29;20745;-84
2022/01/10 02:40:09;;;;;;;14.20;9.57;;;;;;;4.08;92.93;97676.22;4861738;29;20666;-84
2022/01/10 02:42:37;;;;;;;12.63;8.87;;;;;;;4.10;92.91;97671.81;4852864;29;20637;-84
2022/01/10 02:45:05;;;;;;;17.00;9.30;;;;;;;4.10;92.77;97667.47;4865015;29;20645;-84
2022/01/10 02:47:34;;;;;;;15.00;9.07;;;;;;;4.06;92.98;97680.59;4846175;29;21215;-84
2022/01/10 02:50:04;;;;;;;29.83;10.33;;;;;;;3.98;93.55;97685.31;4853631;29;20753;-84
2022/01/10 02:52:34;;;;;;;16.00;9.00;;;;;;;3.98;93.50;97688.72;4848301;29;20632;-85
2022/01/10 02:55:02;;;;;;;15.50;9.37;;;;;;;4.00;93.33;97684.34;4851530;29;21960;-84
2022/01/10 02:57:32;;;;;;;13.17;9.30;;;;;;;4.05;93.83;97684.94;4848066;29;20642;-84
2022/01/10 03:00:05;;;;;;;19.10;9.97;;;;;;;4.06;94.39;97690.91;4834120;29;20673;-84
2022/01/10 03:02:35;;;;;;;18.03;11.17;;;;;;;4.08;93.72;97694.28;4854916;29;21172;-84
2022/01/10 03:05:06;;;;;;;17.43;9.97;;;;;;;4.07;94.57;97697.75;4862577;29;20646;-84
2022/01/10 03:07:34;;;;;;;19.67;11.40;;;;;;;4.06;93.57;97702.09;4833390;29;21365;-84
2022/01/10 03:10:04;;;;;;;13.03;9.57;;;;;;;4.08;94.09;97713.16;4848483;29;20671;-84
2022/01/10 03:12:32;;;;;;;14.40;9.80;;;;;;;4.08;93.16;97712.34;4835606;29;20745;-84
2022/01/10 03:15:01;;;;;;;13.57;9.90;;;;;;;4.06;93.32;97706.41;4847609;29;21278;-84
2022/01/10 03:17:30;;;;;;;16.30;9.90;;;;;;;4.05;92.91;97715.06;4842390;29;20756;-84
2022/01/10 03:19:58;;;;;;;16.90;9.83;;;;;;;4.06;93.03;97721.88;4849592;29;20661;-85
2022/01/10 03:22:27;;;;;;;15.13;10.10;;;;;;;4.09;93.60;97724.31;4833854;29;20645;-84
2022/01/10 03:24:56;;;;;;;16.40;10.30;;;;;;;4.12;92.68;97726.72;4851995;29;20642;-84
2022/01/10 03:27:25;;;;;;;13.67;10.07;;;;;;;4.12;92.82;97730.19;4831715;29;20761;-84
2022/01/10 03:29:54;;;;;;;18.13;10.87;;;;;;;4.16;93.01;97736.00;4833270;29;20669;-84
2022/01/10 03:32:24;;;;;;;18.10;10.90;;;;;;;4.17;93.21;97741.09;4831412;29;21303;-84
2022/01/10 03:34:57;;;;;;;20.20;10.87;;;;;;;4.17;93.71;97743.66;4848635;29;20638;-84
2022/01/10 03:37:27;;;;;;;17.90;10.63;;;;;;;4.18;93.74;97744.50;4846243;29;20630;-84
2022/01/10 03:39:55;;;;;;;20.70;12.07;;;;;;;4.20;92.95;97747.84;4848309;29;21004;-84
2022/01/10 03:42:23;;;;;;;17.90;11.37;;;;;;;4.20;93.74;97760.75;4851994;29;20637;-84
2022/01/10 03:44:52;;;;;;;13.77;10.40;;;;;;;4.22;93.53;97759.75;4850692;29;20638;-84
2022/01/10 03:47:21;;;;;;;14.33;10.70;;;;;;;4.23;93.56;97761.44;4846021;29;21228;-84
2022/01/10 03:49:50;;;;;;;16.80;11.60;;;;;;;4.23;93.48;97757.09;4848682;29;21532;-84
2022/01/10 03:52:18;;;;;;;16.37;10.53;;;;;;;4.24;93.71;97758.78;4862226;29;20741;-84
2022/01/10 03:54:48;;;;;;;16.17;10.20;;;;;;;4.25;93.53;97772.50;4845690;29;20638;-84
2022/01/10 03:57:16;;;;;;;13.17;10.73;;;;;;;4.28;94.01;97780.97;4829681;29;20710;-84
2022/01/10 03:59:44;;;;;;;12.73;9.60;;;;;;;4.28;93.68;97770.63;4864911;29;20690;-84
2022/01/10 04:02:12;;;;;;;17.30;10.87;;;;;;;4.27;93.12;97774.13;4850362;29;20648;-84
2022/01/10 04:04:41;;;;;;;13.47;9.67;;;;;;;4.28;93.03;97780.09;4862097;29;21269;-84
2022/01/10 04:07:10;;;;;;;14.70;10.17;;;;;;;4.27;93.29;97784.44;4844647;29;20777;-84
2022/01/10 04:09:39;;;;;;;15.47;10.80;;;;;;;4.28;93.11;97780.09;4844173;29;21253;-84
2022/01/10 04:12:09;;;;;;;14.43;10.43;;;;;;;4.28;93.10;97785.25;4829786;29;20646;-84
2022/01/10 04:14:37;;;;;;;14.80;10.70;;;;;;;4.26;93.37;97782.75;4863009;29;20635;-84
2022/01/10 04:17:05;;;;;;;20.63;11.00;;;;;;;4.25;93.19;97788.00;4847345;29;21414;-84
2022/01/10 04:19:34;;;;;;;18.10;11.43;;;;;;;4.26;92.24;97797.41;4829827;29;20658;-84
2022/01/10 04:22:03;;;;;;;15.20;11.00;;;;;;;4.23;93.26;97793.22;4832080;29;20660;-84
2022/01/10 04:24:32;;;;;;;16.93;10.90;;;;;;;4.27;93.34;97799.09;4832838;29;20644;-84
2022/01/10 04:27:00;;;;;;;15.00;10.67;;;;;;;4.27;93.18;97810.25;4848684;29;20700;-84
2022/01/10 04:29:30;;;;;;;15.70;10.37;;;;;;;4.28;93.68;97809.34;4832091;29;20826;-84
2022/01/10 04:32:00;;;;;;;15.27;11.10;;;;;;;4.32;93.46;97810.03;4833776;29;21030;-84
2022/01/10 04:34:28;;;;;;;18.43;12.33;;;;;;;4.33;93.46;97809.94;4845394;29;20648;-85
2022/01/10 04:36:56;;;;;;;20.40;10.00;;;;;;;4.37;92.73;97821.78;4848865;29;20706;-85
2022/01/10 04:39:25;;;;;;;15.23;10.57;;;;;;;4.37;93.14;97824.34;4832299;29;20637;-84
2022/01/10 04:41:53;;;;;;;15.87;10.83;;;;;;;4.39;92.74;97824.28;4830248;29;21258;-84
2022/01/10 04:44:21;;;;;;;19.00;10.90;;;;;;;4.39;94.19;97822.56;4832756;29;20765;-85
2022/01/10 04:46:51;;;;;;;15.10;10.23;;;;;;;4.37;92.47;97832.09;4859472;29;20646;-84
2022/01/10 04:49:24;;;;;;;14.50;9.40;;;;;;;4.39;93.47;97832.88;4847217;29;20772;-85
2022/01/10 04:51:53;;;;;;;15.07;10.60;;;;;;;4.42;92.54;97845.63;4831089;29;20818;-85
2022/01/10 04:54:22;;;;;;;15.63;10.60;;;;;;;4.45;93.03;97850.66;4846681;29;21010;-84
2022/01/10 04:56:50;;;;;;;16.70;11.70;;;;;;;4.43;93.38;97855.03;4850033;29;20805;-84
2022/01/10 04:59:20;;;;;;;14.07;10.07;;;;;;;4.44;93.26;97859.28;4831471;29;20649;-84
2022/01/10 05:01:48;;;;;;;16.00;11.03;;;;;;;4.44;93.43;97859.28;4844667;29;20750;-84
2022/01/10 05:04:18;;;;;;;14.17;10.50;;;;;;;4.44;93.51;97869.63;4845329;29;20637;-84
2022/01/10 05:06:46;;;;;;;18.37;11.07;;;;;;;4.43;92.93;97864.53;4847146;29;20685;-84
2022/01/10 05:09:15;;;;;;;15.57;10.77;;;;;;;4.41;93.06;97869.75;4836792;29;20719;-84
2022/01/10 05:11:51;;;;;;;16.27;11.30;;;;;;;4.43;93.04;97882.59;4833883;29;21204;-85
2022/01/10 05:14:19;;;;;;;28.87;15.87;;;;;;;4.44;93.37;97885.09;4848746;29;21062;-85
2022/01/10 05:16:47;;;;;;;23.90;13.97;;;;;;;4.46;93.04;97891.03;4849557;29;20677;-84
2022/01/10 05:19:15;;;;;;;20.13;11.40;;;;;;;4.45;93.28;97891.97;4852201;29;20651;-84
2022/01/10 05:21:45;;;;;;;15.37;10.47;;;;;;;4.45;92.46;97898.84;4865764;29;20655;-85
2022/01/10 05:24:13;;;;;;;55.80;28.57;;;;;;;4.48;92.88;97903.84;4838262;29;20648;-84
2022/01/10 05:26:42;;;;;;;22.73;14.43;;;;;;;4.46;92.92;97906.50;4837743;29;20640;-84
2022/01/10 05:29:13;;;;;;;18.80;12.77;;;;;;;4.47;93.08;97905.63;4832702;29;20660;-84
2022/01/10 05:31:41;;;;;;;20.10;12.40;;;;;;;4.48;92.98;97912.47;4834692;29;20661;-85
2022/01/10 05:34:18;;;;;;;23.30;13.80;;;;;;;4.49;92.40;97914.13;4848949;29;20651;-84
2022/01/10 05:36:48;;;;;;;17.73;10.90;;;;;;;4.50;92.32;97914.97;4850316;29;20643;-84
2022/01/10 05:39:16;;;;;;;17.23;11.13;;;;;;;4.51;93.22;97911.47;4857646;29;21291;-84
2022/01/10 05:41:47;;;;;;;12.67;9.60;;;;;;;4.50;93.46;97925.28;4847124;29;20690;-84
2022/01/10 05:44:15;;;;;;;13.53;9.60;;;;;;;4.48;92.95;97927.94;4852003;29;21239;-84
2022/01/10 05:46:46;;;;;;;14.50;9.60;;;;;;;4.46;93.67;97929.75;4833960;29;20629;-84
2022/01/10 05:49:18;;;;;;;17.63;10.20;;;;;;;4.50;93.56;97931.28;4834073;29;20663;-84
2022/01/10 05:51:48;;;;;;;19.17;10.50;;;;;;;4.51;93.56;97932.97;4850422;29;20656;-84
2022/01/10 05:54:36;;;;;;;15.50;10.10;;;;;;;4.56;92.39;97945.66;4852648;29;20650;-84
2022/01/10 05:57:06;;;;;;;16.27;9.93;;;;;;;4.56;92.24;97959.41;4850301;29;20636;-84
2022/01/10 05:59:38;;;;;;;14.97;9.97;;;;;;;4.55;92.54;97955.13;4848072;29;20646;-84
2022/01/10 06:02:07;;;;;;;13.30;10.33;;;;;;;4.57;92.32;97958.50;4848655;29;20713;-84
2022/01/10 06:04:35;;;;;;;22.80;12.47;;;;;;;4.53;93.34;97962.13;4849914;29;20649;-84
2022/01/10 06:07:17;;;;;;;19.10;12.30;;;;;;;4.52;92.44;97968.19;4847507;29;20662;-84
2022/01/10 06:09:47;;;;;;;17.73;11.73;;;;;;;4.50;93.04;97971.75;4853033;29;20643;-84
2022/01/10 06:12:15;;;;;;;18.43;12.50;;;;;;;4.52;92.42;97970.75;4847367;29;20706;-84
2022/01/10 06:14:43;;;;;;;22.13;12.47;;;;;;;4.52;93.79;97982.84;4849442;29;21196;-84
2022/01/10 06:17:12;;;;;;;18.63;12.47;;;;;;;4.52;92.92;97983.66;4847667;29;20643;-85
2022/01/10 06:19:40;;;;;;;18.80;11.80;;;;;;;4.55;92.44;97995.63;4848929;29;20791;-84
2022/01/10 06:22:09;;;;;;;99.87;41.43;;;;;;;4.53;93.15;97993.09;4833475;29;20697;-84
2022/01/10 06:24:39;;;;;;;64.27;32.60;;;;;;;4.51;92.52;98005.25;4840182;29;20650;-85
2022/01/10 06:27:07;;;;;;;66.20;33.73;;;;;;;4.51;93.56;98014.72;4845852;29;20640;-84
2022/01/10 06:29:36;;;;;;;42.07;23.43;;;;;;;4.52;92.83;98013.81;4832389;29;20645;-86
2022/01/10 06:32:05;;;;;;;45.13;22.67;;;;;;;4.53;92.39;98013.75;4852192;29;20668;-86
2022/01/10 06:34:34;;;;;;;32.30;18.17;;;;;;;4.55;93.70;98022.25;4835517;29;20642;-86
2022/01/10 06:37:02;;;;;;;25.97;15.30;;;;;;;4.55;92.56;98024.84;4831673;29;20651;-87
2022/01/10 06:39:35;;;;;;;21.97;14.30;;;;;;;4.57;93.20;98035.97;4848836;29;20654;-85
2022/01/10 06:42:06;;;;;;;27.00;14.87;;;;;;;4.57;92.43;98046.28;4830531;29;20630;-86
2022/01/10 06:44:34;;;;;;;22.03;14.33;;;;;;;4.56;92.86;98054.94;4849646;29;21241;-86
2022/01/10 06:47:03;;;;;;;17.40;12.30;;;;;;;4.59;92.73;98054.78;4863871;29;20646;-85
2022/01/10 06:49:32;;;;;;;17.80;11.83;;;;;;;4.59;93.37;98059.94;4851615;29;20724;-86
2022/01/10 06:52:00;;;;;;;16.20;10.83;;;;;;;4.61;93.29;98072.78;4848229;29;20668;-85
2022/01/10 06:54:28;;;;;;;13.10;8.90;;;;;;;4.60;93.15;98078.84;4848787;29;20665;-85
2022/01/10 06:56:58;;;;;;;11.93;8.63;;;;;;;4.58;93.18;98083.25;4833908;29;20653;-85
2022/01/10 06:59:29;;;;;;;13.00;8.90;;;;;;;4.58;93.44;98078.91;4846653;29;20661;-85
2022/01/10 07:01:58;;;;;;;12.00;9.10;;;;;;;4.58;92.35;98097.00;4852661;29;21055;-85
2022/01/10 07:04:27;;;;;;;16.90;11.10;;;;;;;4.55;93.30;98093.72;4839118;29;20666;-85
2022/01/10 07:06:57;;;;;;;22.53;17.07;;;;;;;4.58;92.90;98109.06;4838129;29;21084;-85
2022/01/10 07:09:31;;;;;;;16.50;11.17;;;;;;;4.56;93.43;98114.31;4854530;29;20641;-85
2022/01/10 07:12:06;;;;;;;13.63;10.93;;;;;;;4.57;92.70;98110.84;4833473;29;20670;-85
2022/01/10 07:14:44;;;;;;;14.77;10.63;;;;;;;4.60;92.54;98118.44;4846422;29;20690;-84
2022/01/10 07:17:14;;;;;;;16.73;11.50;;;;;;;4.61;93.40;98127.00;4830826;29;20630;-83
2022/01/10 07:19:42;;;;;;;17.30;12.00;;;;;;;4.61;92.60;98125.25;4855653;29;20681;-83
2022/01/10 07:22:16;;;;;;;16.03;11.90;;;;;;;4.61;92.85;98129.59;4851891;29;20649;-83
2022/01/10 07:24:44;;;;;;;18.07;11.10;;;;;;;4.61;93.39;98145.09;4837590;29;20825;-83
2022/01/10 07:27:12;;;;;;;15.33;10.33;;;;;;;4.62;93.51;98142.44;4864573;29;20654;-83
2022/01/10 07:29:40;;;;;;;13.70;9.93;;;;;;;4.62;93.21;98157.94;4849929;29;20647;-83
2022/01/10 07:32:10;;;;;;;15.20;10.50;;;;;;;4.66;93.67;98166.38;4833417;29;24525;-83
2022/01/10 07:34:39;;;;;;;16.03;10.77;;;;;;;4.69;93.38;98164.47;4844995;29;20663;-83
2022/01/10 07:37:07;;;;;;;17.40;11.70;;;;;;;4.69;92.63;98170.50;4848885;29;20750;-84
2022/01/10 07:39:35;;;;;;;13.97;10.53;;;;;;;4.72;92.67;98172.09;4839616;29;20652;-85
2022/01/10 07:42:04;;;;;;;14.87;10.60;;;;;;;4.74;92.67;98171.13;4853997;29;20638;-85
2022/01/10 07:44:45;;;;;;;12.40;9.60;;;;;;;4.77;93.13;98183.91;4847934;29;20646;-84
2022/01/10 07:47:14;;;;;;;12.93;9.97;;;;;;;4.79;92.80;98184.69;4852011;29;20639;-84
2022/01/10 07:49:42;;;;;;;12.63;8.57;;;;;;;4.83;92.84;98199.16;4837511;29;20657;-84
2022/01/10 07:52:11;;;;;;;11.53;8.20;;;;;;;4.86;92.25;98203.34;4849229;29;20921;-84
2022/01/10 07:54:39;;;;;;;11.63;8.13;;;;;;;4.88;92.45;98202.34;4840257;29;21193;-84
2022/01/10 07:57:07;;;;;;;14.53;8.67;;;;;;;4.89;92.42;98208.38;4835541;29;20648;-84
2022/01/10 07:59:35;;;;;;;13.23;8.57;;;;;;;4.86;91.59;98208.50;4843824;29;20641;-84
2022/01/10 08:02:08;;;;;;;11.37;7.17;;;;;;;4.86;92.21;98208.50;4846931;29;21061;-84
2022/01/10 08:04:38;;;;;;;9.03;7.53;;;;;;;4.87;91.64;98212.75;4851823;29;20641;-84
2022/01/10 08:07:06;;;;;;;11.40;8.97;;;;;;;4.90;91.49;98221.22;4848299;29;20686;-84
2022/01/10 08:09:35;;;;;;;11.90;6.73;;;;;;;4.92;91.86;98223.75;4845807;29;20651;-83
2022/01/10 08:12:04;;;;;;;11.43;7.40;;;;;;;4.91;91.42;98228.06;4850975;29;20692;-84
2022/01/10 08:14:32;;;;;;;13.70;9.00;;;;;;;4.94;91.59;98230.50;4848929;29;20634;-85
2022/01/10 08:17:01;;;;;;;11.97;8.30;;;;;;;4.98;91.72;98238.97;4852107;29;20755;-84
2022/01/10 08:19:31;;;;;;;14.40;8.67;;;;;;;4.98;92.23;98239.81;4847982;29;20658;-85
2022/01/10 08:22:01;;;;;;;13.97;7.30;;;;;;;5.02;91.99;98240.50;4847713;29;20648;-84
2022/01/10 08:24:29;;;;;;;17.07;9.00;;;;;;;5.02;91.80;98250.84;4834866;29;20745;-84
2022/01/10 08:26:58;;;;;;;12.90;9.17;;;;;;;5.05;91.54;98250.69;4848629;29;21212;-85
2022/01/10 08:29:26;;;;;;;13.73;9.00;;;;;;;5.11;91.64;98258.19;4848284;29;21485;-84
2022/01/10 08:31:55;;;;;;;11.30;7.10;;;;;;;5.14;91.64;98252.00;4849760;29;21030;-83
2022/01/10 08:34:24;;;;;;;13.70;8.97;;;;;;;5.17;90.92;98272.53;4850786;29;20658;-84
2022/01/10 08:36:52;;;;;;;11.63;8.33;;;;;;;5.20;90.70;98261.19;4848248;29;21365;-82
2022/01/10 08:39:21;;;;;;;12.90;9.63;;;;;;;5.22;91.07;98267.97;4865252;29;21215;-82
2022/01/10 08:41:50;;;;;;;14.73;8.40;;;;;;;5.25;91.35;98278.19;4837339;29;20729;-82
2022/01/10 08:44:18;;;;;;;11.90;8.23;;;;;;;5.31;90.56;98290.00;4853887;29;20751;-83
2022/01/10 08:46:47;;;;;;;13.83;8.53;;;;;;;5.32;90.27;98289.94;4853450;29;20641;-83
2022/01/10 08:49:15;;;;;;;10.47;8.10;;;;;;;5.28;89.87;98296.16;4851709;29;20660;-83
2022/01/10 08:51:45;;;;;;;12.50;8.63;;;;;;;5.26;91.04;98292.81;4853569;29;20662;-81
2022/01/10 08:54:13;;;;;;;13.77;8.17;;;;;;;5.31;91.21;98292.59;4852637;29;21217;-82
2022/01/10 08:56:43;;;;;;;13.23;7.33;;;;;;;5.36;91.19;98303.56;4834402;29;21218;-83
2022/01/10 08:59:11;;;;;;;14.37;6.77;;;;;;;5.39;91.27;98293.91;4852139;29;20652;-83
2022/01/10 09:01:39;;;;;;;11.17;7.10;;;;;;;5.43;90.51;98310.97;4852982;29;20645;-82
2022/01/10 09:04:08;;;;;;;11.03;6.70;;;;;;;5.46;90.29;98307.41;4851520;29;20657;-89
2022/01/10 09:06:36;;;;;;;10.53;6.90;;;;;;;5.46;90.02;98310.84;4853332;29;20665;-81
2022/01/10 09:09:06;;;;;;;11.00;7.20;;;;;;;5.49;90.24;98322.78;4850392;29;20643;-83
2022/01/10 09:11:35;;;;;;;11.53;6.50;;;;;;;5.55;89.83;98331.13;4852546;29;20644;-83
2022/01/10 09:14:04;;;;;;;11.07;6.83;;;;;;;5.61;89.93;98336.03;4855038;29;20670;-88
2022/01/10 09:16:33;;;;;;;13.23;6.50;;;;;;;5.63;89.67;98336.78;4851115;29;20669;-83
2022/01/10 09:19:01;;;;;;;11.93;6.97;;;;;;;5.68;90.23;98337.41;4866516;29;20704;-82
2022/01/10 09:21:29;;;;;;;10.67;7.00;;;;;;;5.72;90.17;98344.97;4851530;29;20644;-82
2022/01/10 09:23:57;;;;;;;9.90;7.13;;;;;;;5.75;89.96;98344.03;4835469;29;21194;-84
2022/01/10 09:26:25;;;;;;;11.83;7.53;;;;;;;5.79;89.28;98353.34;4850140;29;21247;-83
2022/01/10 09:28:54;;;;;;;11.57;6.80;;;;;;;5.78;88.91;98359.41;4846766;29;20650;-82
2022/01/10 09:31:24;;;;;;;10.27;6.90;;;;;;;5.76;88.52;98359.47;4850848;29;20679;-82
2022/01/10 09:33:55;;;;;;;18.27;9.43;;;;;;;5.78;88.96;98362.00;4836523;29;20772;-83
2022/01/10 09:36:26;;;;;;;11.83;8.23;;;;;;;5.78;89.49;98365.41;4850459;29;20643;-83
2022/01/10 09:38:54;;;;;;;14.33;7.90;;;;;;;5.84;89.17;98372.91;4850523;29;20687;-83
2022/01/10 09:41:23;;;;;;;15.13;9.67;;;;;;;5.90;89.68;98377.81;4850088;29;20658;-83
2022/01/10 09:43:52;;;;;;;16.20;8.67;;;;;;;5.94;89.33;98378.50;4853281;29;20637;-83
2022/01/10 09:46:21;;;;;;;12.00;7.30;;;;;;;5.96;88.85;98379.28;4849429;29;20835;-83
2022/01/10 09:48:52;;;;;;;9.87;6.47;;;;;;;6.00;88.65;98383.41;4850335;29;20747;-83
2022/01/10 09:51:26;;;;;;;8.30;6.67;;;;;;;6.02;87.96;98390.19;4851775;29;20798;-83
2022/01/10 09:53:55;;;;;;;10.87;6.77;;;;;;;6.14;88.43;98393.03;4866495;29;21089;-83
2022/01/10 09:56:23;;;;;;;9.33;6.53;;;;;;;6.24;87.12;98396.03;4837662;29;20665;-83
2022/01/10 09:58:53;;;;;;;10.57;6.93;;;;;;;6.33;87.75;98403.38;4845217;29;20754;-83
2022/01/10 10:01:22;;;;;;;10.27;6.50;;;;;;;6.43;86.96;98402.88;4850245;29;20977;-88
2022/01/10 10:03:53;;;;;;;9.80;6.87;;;;;;;6.59;88.61;98402.09;4853620;29;20638;-88
2022/01/10 10:06:22;;;;;;;12.63;7.07;;;;;;;6.76;86.87;98402.13;4830967;29;21468;-86
2022/01/10 10:08:51;;;;;;;11.23;6.40;;;;;;;6.88;87.20;98398.09;4835989;29;20644;-85
2022/01/10 10:11:19;;;;;;;9.40;6.53;;;;;;;7.00;85.34;98400.09;4853779;29;20648;-83
2022/01/10 10:13:53;;;;;;;11.03;7.23;;;;;;;7.17;87.36;98412.16;4851314;29;20671;-85
2022/01/10 10:16:22;;;;;;;12.80;7.03;;;;;;;7.51;86.43;98414.72;4847835;29;20652;-84
2022/01/10 10:18:51;;;;;;;12.67;6.40;;;;;;;7.64;84.19;98413.19;4850149;29;21208;-84
2022/01/10 10:21:21;;;;;;;10.40;6.90;;;;;;;7.67;83.15;98416.44;4851727;29;20638;-85
2022/01/10 10:23:50;;;;;;;13.93;8.07;;;;;;;7.70;84.02;98425.84;4847864;29;20730;-85
2022/01/10 10:26:21;;;;;;;12.30;7.90;;;;;;;7.80;84.34;98419.22;4835185;29;21003;-85
2022/01/10 10:28:49;;;;;;;11.43;7.90;;;;;;;7.84;85.08;98426.78;4853868;29;20639;-84
2022/01/10 10:31:24;;;;;;;7.67;6.13;;;;;;;7.93;83.54;98425.47;4851265;29;20637;-85
2022/01/10 10:33:55;;;;;;;12.93;6.50;;;;;;;8.03;82.69;98427.50;4850796;29;20661;-85
2022/01/10 10:36:25;;;;;;;10.20;6.67;;;;;;;8.09;81.31;98420.22;4848173;29;21625;-85
2022/01/10 10:38:55;;;;;;;11.03;7.40;;;;;;;8.12;83.04;98425.28;4847693;29;21643;-85
2022/01/10 10:41:23;;;;;;;10.30;7.87;;;;;;;8.12;81.72;98425.28;4861984;29;21352;-85
2022/01/10 10:43:54;;;;;;;12.67;8.60;;;;;;;8.04;82.32;98443.00;4850467;29;22768;-85
2022/01/10 10:46:26;;;;;;;12.60;8.00;;;;;;;7.92;81.12;98436.78;4836178;29;20653;-85
2022/01/10 10:49:00;;;;;;;15.53;8.67;;;;;;;7.87;83.19;98436.19;4848898;29;20689;-85
2022/01/10 10:51:29;;;;;;;13.70;9.00;;;;;;;7.61;81.78;98437.53;4834100;29;20652;-85
2022/01/10 10:54:02;;;;;;;9.23;7.07;;;;;;;7.50;82.22;98438.97;4864164;29;20670;-85
2022/01/10 10:56:33;;;;;;;11.30;7.40;;;;;;;7.47;83.85;98439.13;4849463;29;20985;-85
2022/01/10 10:59:02;;;;;;;12.90;6.73;;;;;;;7.43;82.76;98448.00;4834149;29;20754;-85
2022/01/10 11:01:30;;;;;;;13.80;6.60;;;;;;;7.40;83.22;98448.16;4852197;29;20636;-85
2022/01/10 11:04:01;;;;;;;9.73;6.63;;;;;;;7.42;83.06;98448.06;4864408;29;20652;-85
2022/01/10 11:06:29;;;;;;;11.10;7.50;;;;;;;7.44;82.90;98449.66;4851833;29;20725;-85
2022/01/10 11:08:58;;;;;;;12.57;7.83;;;;;;;7.48;84.91;98448.59;4853344;29;20641;-85
2022/01/10 11:11:26;;;;;;;17.70;9.70;;;;;;;7.49;83.40;98451.13;4849549;29;20656;-85
2022/01/10 11:13:56;;;;;;;13.63;8.00;;;;;;;7.57;83.85;98453.31;4850212;29;20668;-85
2022/01/10 11:16:24;;;;;;;9.63;7.33;;;;;;;7.60;84.81;98453.16;4852883;29;21249;-85
2022/01/10 11:18:52;;;;;;;13.10;7.63;;;;;;;7.55;83.94;98468.97;4853722;29;20751;-85
2022/01/10 11:21:24;;;;;;;12.23;7.50;;;;;;;7.55;83.56;98468.13;4853695;29;20661;-85
2022/01/10 11:23:52;;;;;;;9.40;7.30;;;;;;;7.53;84.54;98468.22;4847003;29;20660;-85
2022/01/10 11:26:21;;;;;;;13.00;7.57;;;;;;;7.59;83.75;98472.25;4849348;29;20677;-84
2022/01/10 11:28:50;;;;;;;8.93;6.90;;;;;;;7.55;83.96;98473.34;4833969;29;20673;-85
2022/01/10 11:31:22;;;;;;;11.80;7.77;;;;;;;7.60;84.17;98473.94;4851548;29;20614;-85
2022/01/10 11:33:51;;;;;;;10.77;7.50;;;;;;;7.63;83.21;98474.59;4850908;29;20646;-85
2022/01/10 11:36:23;;;;;;;14.80;8.87;;;;;;;7.61;82.38;98476.44;4861855;29;20680;-85
2022/01/10 11:38:53;;;;;;;16.43;9.63;;;;;;;7.57;82.68;98482.69;4850550;29;20711;-85
2022/01/10 11:41:22;;;;;;;19.03;9.17;;;;;;;7.58;84.66;98488.75;4868153;29;20739;-84
2022/01/10 11:43:53;;;;;;;13.97;8.73;;;;;;;7.63;83.66;98491.94;4846514;29;20753;-84
2022/01/10 11:46:24;;;;;;;8.67;7.77;;;;;;;7.61;84.14;98493.78;4849137;29;20644;-85
2022/01/10 11:48:57;;;;;;;13.53;8.20;;;;;;;7.62;83.28;98498.03;4832400;29;20649;-84